sensor_id;sensor_type;location;lat;lon;timestamp;P1;durP1;ratioP1;P2;durP2;ratioP2
61025;SDS011;46911;32.650;-16.902;2022-12-18T00:00:20;4.45;;;0.82;;
61025;SDS011;46911;32.650;-16.902;2022-12-18T00:02:21;2.60;;;0.90;;
61025;SDS011;46911;32.650;-16.902;2022-12-18T00:04:25;5.88;;;1.02;;
61025;SDS011;46911;32.650;-16.902;2022-12-18T00:06:28;1.23;;;0.57;;
61025;SDS011;46911;32.650;-16.902;2022-12-18T00:08:30;6.45;;;0.95;;
61025;SDS011;46911;32.650;-16.902;2022-12-18T00:10:33;3.45;;;0.60;;
61025;SDS011;46911;32.650;-16.902;2022-12-18T00:12:34;10.73;;;1.02;;
61025;SDS011;46911;32.650;-16.902;2022-12-18T00:14:37;3.15;;;0.90;;
61025;SDS011;46911;32.650;-16.902;2022-12-18T00:16:42;2.35;;;0.80;;
61025;SDS011;46911;32.650;-16.902;2022-12-18T00:18:44;1.70;;;1.00;;
61025;SDS011;46911;32.650;-16.902;2022-12-18T00:20:46;3.22;;;0.82;;
61025;SDS011;46911;32.650;-16.902;2022-12-18T00:22:47;2.47;;;1.00;;
61025;SDS011;46911;32.650;-16.902;2022-12-18T00:24:50;1.85;;;0.73;;
61025;SDS011;46911;32.650;-16.902;2022-12-18T00:26:53;4.85;;;0.88;;
61025;SDS011;46911;32.650;-16.902;2022-12-18T00:29:01;4.78;;;0.80;;
61025;SDS011;46911;32.650;-16.902;2022-12-18T00:31:08;3.50;;;0.82;;
61025;SDS011;46911;32.650;-16.902;2022-12-18T00:33:13;2.95;;;1.08;;
61025;SDS011;46911;32.650;-16.902;2022-12-18T00:35:16;5.32;;;0.70;;
61025;SDS011;46911;32.650;-16.902;2022-12-18T00:37:17;6.15;;;0.90;;
61025;SDS011;46911;32.650;-16.902;2022-12-18T00:39:24;2.40;;;1.13;;
61025;SDS011;46911;32.650;-16.902;2022-12-18T00:41:25;4.57;;;0.80;;
61025;SDS011;46911;32.650;-16.902;2022-12-18T00:43:48;3.08;;;0.68;;
61025;SDS011;46911;32.650;-16.902;2022-12-18T00:45:51;2.85;;;0.75;;
61025;SDS011;46911;32.650;-16.902;2022-12-18T00:47:55;4.95;;;0.90;;
61025;SDS011;46911;32.650;-16.902;2022-12-18T00:49:59;1.85;;;0.68;;
61025;SDS011;46911;32.650;-16.902;2022-12-18T00:51:59;0.47;;;0.40;;
61025;SDS011;46911;32.650;-16.902;2022-12-18T00:54:00;5.32;;;0.80;;
61025;SDS011;46911;32.650;-16.902;2022-12-18T00:56:01;4.00;;;0.85;;
61025;SDS011;46911;32.650;-16.902;2022-12-18T00:58:02;2.30;;;0.60;;
61025;SDS011;46911;32.650;-16.902;2022-12-18T01:00:06;4.80;;;0.70;;
61025;SDS011;46911;32.650;-16.902;2022-12-18T01:02:09;1.17;;;0.30;;
61025;SDS011;46911;32.650;-16.902;2022-12-18T01:04:11;5.30;;;0.40;;
61025;SDS011;46911;32.650;-16.902;2022-12-18T01:06:14;4.22;;;0.70;;
61025;SDS011;46911;32.650;-16.902;2022-12-18T01:08:19;4.05;;;0.90;;
61025;SDS011;46911;32.650;-16.902;2022-12-18T01:10:20;1.35;;;0.43;;
61025;SDS011;46911;32.650;-16.902;2022-12-18T01:12:21;3.50;;;0.82;;
61025;SDS011;46911;32.650;-16.902;2022-12-18T01:14:29;3.65;;;0.70;;
61025;SDS011;46911;32.650;-16.902;2022-12-18T01:16:33;7.90;;;1.00;;
61025;SDS011;46911;32.650;-16.902;2022-12-18T01:18:34;4.18;;;0.50;;
61025;SDS011;46911;32.650;-16.902;2022-12-18T01:20:40;5.18;;;0.60;;
61025;SDS011;46911;32.650;-16.902;2022-12-18T01:22:41;2.97;;;0.60;;
61025;SDS011;46911;32.650;-16.902;2022-12-18T01:24:42;1.08;;;0.47;;
61025;SDS011;46911;32.650;-16.902;2022-12-18T01:26:45;1.55;;;0.50;;
61025;SDS011;46911;32.650;-16.902;2022-12-18T01:28:48;5.72;;;0.50;;
61025;SDS011;46911;32.650;-16.902;2022-12-18T01:30:49;1.77;;;0.65;;
61025;SDS011;46911;32.650;-16.902;2022-12-18T01:32:50;2.10;;;0.50;;
61025;SDS011;46911;32.650;-16.902;2022-12-18T01:34:51;2.67;;;0.60;;
61025;SDS011;46911;32.650;-16.902;2022-12-18T01:36:54;4.40;;;0.73;;
61025;SDS011;46911;32.650;-16.902;2022-12-18T01:38:58;1.80;;;0.50;;
61025;SDS011;46911;32.650;-16.902;2022-12-18T01:41:06;3.50;;;0.50;;
61025;SDS011;46911;32.650;-16.902;2022-12-18T01:43:08;2.20;;;0.50;;
61025;SDS011;46911;32.650;-16.902;2022-12-18T01:47:38;2.47;;;0.50;;
61025;SDS011;46911;32.650;-16.902;2022-12-18T01:49:47;4.28;;;0.70;;
61025;SDS011;46911;32.650;-16.902;2022-12-18T01:51:50;1.50;;;0.50;;
61025;SDS011;46911;32.650;-16.902;2022-12-18T01:53:52;2.17;;;0.60;;
61025;SDS011;46911;32.650;-16.902;2022-12-18T01:55:53;2.53;;;0.65;;
61025;SDS011;46911;32.650;-16.902;2022-12-18T01:58:01;10.90;;;0.85;;
61025;SDS011;46911;32.650;-16.902;2022-12-18T02:00:13;2.67;;;0.90;;
61025;SDS011;46911;32.650;-16.902;2022-12-18T02:02:21;3.42;;;0.57;;
61025;SDS011;46911;32.650;-16.902;2022-12-18T02:04:26;1.13;;;0.60;;
61025;SDS011;46911;32.650;-16.902;2022-12-18T02:06:33;2.03;;;0.60;;
61025;SDS011;46911;32.650;-16.902;2022-12-18T02:11:02;2.38;;;0.70;;
61025;SDS011;46911;32.650;-16.902;2022-12-18T02:15:17;2.72;;;0.93;;
61025;SDS011;46911;32.650;-16.902;2022-12-18T02:17:28;3.38;;;1.00;;
61025;SDS011;46911;32.650;-16.902;2022-12-18T02:27:10;8.15;;;0.85;;
61025;SDS011;46911;32.650;-16.902;2022-12-18T02:29:15;2.03;;;0.40;;
61025;SDS011;46911;32.650;-16.902;2022-12-18T02:31:22;0.40;;;0.40;;
61025;SDS011;46911;32.650;-16.902;2022-12-18T02:33:28;2.30;;;0.73;;
61025;SDS011;46911;32.650;-16.902;2022-12-18T02:35:33;3.85;;;0.90;;
61025;SDS011;46911;32.650;-16.902;2022-12-18T02:37:36;4.28;;;0.68;;
61025;SDS011;46911;32.650;-16.902;2022-12-18T02:39:41;5.07;;;0.73;;
61025;SDS011;46911;32.650;-16.902;2022-12-18T02:41:53;3.55;;;0.55;;
61025;SDS011;46911;32.650;-16.902;2022-12-18T02:43:57;2.97;;;0.60;;
61025;SDS011;46911;32.650;-16.902;2022-12-18T02:50:58;5.05;;;0.70;;
61025;SDS011;46911;32.650;-16.902;2022-12-18T02:57:56;10.45;;;0.73;;
61025;SDS011;46911;32.650;-16.902;2022-12-18T03:00:15;4.85;;;0.52;;
61025;SDS011;46911;32.650;-16.902;2022-12-18T03:02:30;3.85;;;0.60;;
61025;SDS011;46911;32.650;-16.902;2022-12-18T03:04:43;4.78;;;0.60;;
61025;SDS011;46911;32.650;-16.902;2022-12-18T03:06:55;3.25;;;0.45;;
61025;SDS011;46911;32.650;-16.902;2022-12-18T03:09:01;2.78;;;0.60;;
61025;SDS011;46911;32.650;-16.902;2022-12-18T03:11:11;2.85;;;0.35;;
61025;SDS011;46911;32.650;-16.902;2022-12-18T03:13:16;1.83;;;0.60;;
61025;SDS011;46911;32.650;-16.902;2022-12-18T03:15:27;1.50;;;0.43;;
61025;SDS011;46911;32.650;-16.902;2022-12-18T03:17:41;2.08;;;0.55;;
61025;SDS011;46911;32.650;-16.902;2022-12-18T03:19:51;1.00;;;0.40;;
61025;SDS011;46911;32.650;-16.902;2022-12-18T03:21:55;3.38;;;0.52;;
61025;SDS011;46911;32.650;-16.902;2022-12-18T03:24:10;4.63;;;0.68;;
61025;SDS011;46911;32.650;-16.902;2022-12-18T03:26:15;1.00;;;0.40;;
61025;SDS011;46911;32.650;-16.902;2022-12-18T03:28:23;4.70;;;0.40;;
61025;SDS011;46911;32.650;-16.902;2022-12-18T03:30:32;4.05;;;0.22;;
61025;SDS011;46911;32.650;-16.902;2022-12-18T03:34:44;3.20;;;0.50;;
61025;SDS011;46911;32.650;-16.902;2022-12-18T03:36:52;3.50;;;0.50;;
61025;SDS011;46911;32.650;-16.902;2022-12-18T03:38:53;2.30;;;0.50;;
61025;SDS011;46911;32.650;-16.902;2022-12-18T03:46:29;3.85;;;0.63;;
61025;SDS011;46911;32.650;-16.902;2022-12-18T03:48:43;2.15;;;0.45;;
61025;SDS011;46911;32.650;-16.902;2022-12-18T03:53:00;4.03;;;0.60;;
61025;SDS011;46911;32.650;-16.902;2022-12-18T03:55:09;6.47;;;0.90;;
61025;SDS011;46911;32.650;-16.902;2022-12-18T03:57:19;4.75;;;0.63;;
61025;SDS011;46911;32.650;-16.902;2022-12-18T03:59:26;2.58;;;0.70;;
61025;SDS011;46911;32.650;-16.902;2022-12-18T04:01:33;2.55;;;0.45;;
61025;SDS011;46911;32.650;-16.902;2022-12-18T04:03:36;3.45;;;0.60;;
61025;SDS011;46911;32.650;-16.902;2022-12-18T04:05:44;3.72;;;0.57;;
61025;SDS011;46911;32.650;-16.902;2022-12-18T04:07:53;1.77;;;0.60;;
61025;SDS011;46911;32.650;-16.902;2022-12-18T04:09:56;3.25;;;0.90;;
61025;SDS011;46911;32.650;-16.902;2022-12-18T04:12:00;1.42;;;0.45;;
61025;SDS011;46911;32.650;-16.902;2022-12-18T04:14:01;3.90;;;0.85;;
61025;SDS011;46911;32.650;-16.902;2022-12-18T04:16:02;2.80;;;0.80;;
61025;SDS011;46911;32.650;-16.902;2022-12-18T04:18:03;2.20;;;0.70;;
61025;SDS011;46911;32.650;-16.902;2022-12-18T04:20:11;2.70;;;0.90;;
61025;SDS011;46911;32.650;-16.902;2022-12-18T04:22:16;11.30;;;0.80;;
61025;SDS011;46911;32.650;-16.902;2022-12-18T04:24:21;1.80;;;0.50;;
61025;SDS011;46911;32.650;-16.902;2022-12-18T04:26:36;4.70;;;0.70;;
61025;SDS011;46911;32.650;-16.902;2022-12-18T04:29:00;3.00;;;0.68;;
61025;SDS011;46911;32.650;-16.902;2022-12-18T04:31:04;6.85;;;0.60;;
61025;SDS011;46911;32.650;-16.902;2022-12-18T04:33:10;4.93;;;0.80;;
61025;SDS011;46911;32.650;-16.902;2022-12-18T04:35:13;2.13;;;0.50;;
61025;SDS011;46911;32.650;-16.902;2022-12-18T04:37:17;2.67;;;0.70;;
61025;SDS011;46911;32.650;-16.902;2022-12-18T04:39:18;3.78;;;0.75;;
61025;SDS011;46911;32.650;-16.902;2022-12-18T04:41:28;2.95;;;0.90;;
61025;SDS011;46911;32.650;-16.902;2022-12-18T04:43:34;7.75;;;1.80;;
61025;SDS011;46911;32.650;-16.902;2022-12-18T04:45:35;6.47;;;2.58;;
61025;SDS011;46911;32.650;-16.902;2022-12-18T04:47:38;8.35;;;2.08;;
61025;SDS011;46911;32.650;-16.902;2022-12-18T04:49:39;3.92;;;1.52;;
61025;SDS011;46911;32.650;-16.902;2022-12-18T04:51:42;7.28;;;2.28;;
61025;SDS011;46911;32.650;-16.902;2022-12-18T04:53:43;3.38;;;1.23;;
61025;SDS011;46911;32.650;-16.902;2022-12-18T04:55:46;5.03;;;1.95;;
61025;SDS011;46911;32.650;-16.902;2022-12-18T04:57:52;2.80;;;1.20;;
61025;SDS011;46911;32.650;-16.902;2022-12-18T04:59:55;6.53;;;1.30;;
61025;SDS011;46911;32.650;-16.902;2022-12-18T05:01:56;3.88;;;1.33;;
61025;SDS011;46911;32.650;-16.902;2022-12-18T05:03:59;2.67;;;1.00;;
61025;SDS011;46911;32.650;-16.902;2022-12-18T05:06:02;3.45;;;1.02;;
61025;SDS011;46911;32.650;-16.902;2022-12-18T05:08:07;5.93;;;0.85;;
61025;SDS011;46911;32.650;-16.902;2022-12-18T05:10:08;2.83;;;0.82;;
61025;SDS011;46911;32.650;-16.902;2022-12-18T05:12:12;3.00;;;0.60;;
61025;SDS011;46911;32.650;-16.902;2022-12-18T05:14:13;3.25;;;0.65;;
61025;SDS011;46911;32.650;-16.902;2022-12-18T05:16:16;0.93;;;0.50;;
61025;SDS011;46911;32.650;-16.902;2022-12-18T05:18:20;3.60;;;0.65;;
61025;SDS011;46911;32.650;-16.902;2022-12-18T05:20:23;1.52;;;0.60;;
61025;SDS011;46911;32.650;-16.902;2022-12-18T05:22:25;1.27;;;0.47;;
61025;SDS011;46911;32.650;-16.902;2022-12-18T05:24:28;2.35;;;0.50;;
61025;SDS011;46911;32.650;-16.902;2022-12-18T05:26:31;1.38;;;0.98;;
61025;SDS011;46911;32.650;-16.902;2022-12-18T05:28:35;0.68;;;0.55;;
61025;SDS011;46911;32.650;-16.902;2022-12-18T05:30:38;1.42;;;0.60;;
61025;SDS011;46911;32.650;-16.902;2022-12-18T05:32:45;3.28;;;0.70;;
61025;SDS011;46911;32.650;-16.902;2022-12-18T05:34:48;2.17;;;0.50;;
61025;SDS011;46911;32.650;-16.902;2022-12-18T05:36:52;3.55;;;0.57;;
61025;SDS011;46911;32.650;-16.902;2022-12-18T05:38:53;2.75;;;0.73;;
61025;SDS011;46911;32.650;-16.902;2022-12-18T05:40:56;5.80;;;0.68;;
61025;SDS011;46911;32.650;-16.902;2022-12-18T05:43:03;1.25;;;0.50;;
61025;SDS011;46911;32.650;-16.902;2022-12-18T05:45:04;4.10;;;0.65;;
61025;SDS011;46911;32.650;-16.902;2022-12-18T05:47:08;1.30;;;0.60;;
61025;SDS011;46911;32.650;-16.902;2022-12-18T05:49:08;3.28;;;0.55;;
61025;SDS011;46911;32.650;-16.902;2022-12-18T05:51:13;1.95;;;0.73;;
61025;SDS011;46911;32.650;-16.902;2022-12-18T05:53:17;6.72;;;0.90;;
61025;SDS011;46911;32.650;-16.902;2022-12-18T05:55:19;5.18;;;1.25;;
61025;SDS011;46911;32.650;-16.902;2022-12-18T05:57:26;2.83;;;0.60;;
61025;SDS011;46911;32.650;-16.902;2022-12-18T05:59:27;4.05;;;0.88;;
61025;SDS011;46911;32.650;-16.902;2022-12-18T06:01:28;4.10;;;1.45;;
61025;SDS011;46911;32.650;-16.902;2022-12-18T06:03:28;1.70;;;0.80;;
61025;SDS011;46911;32.650;-16.902;2022-12-18T06:05:29;2.58;;;1.42;;
61025;SDS011;46911;32.650;-16.902;2022-12-18T06:07:38;6.00;;;1.00;;
61025;SDS011;46911;32.650;-16.902;2022-12-18T06:09:39;1.92;;;0.50;;
61025;SDS011;46911;32.650;-16.902;2022-12-18T06:11:40;3.47;;;0.77;;
61025;SDS011;46911;32.650;-16.902;2022-12-18T06:13:41;1.23;;;0.60;;
61025;SDS011;46911;32.650;-16.902;2022-12-18T06:15:42;4.07;;;0.85;;
61025;SDS011;46911;32.650;-16.902;2022-12-18T06:17:45;2.30;;;0.75;;
61025;SDS011;46911;32.650;-16.902;2022-12-18T06:19:49;4.85;;;0.60;;
61025;SDS011;46911;32.650;-16.902;2022-12-18T06:21:50;6.05;;;0.80;;
61025;SDS011;46911;32.650;-16.902;2022-12-18T06:23:51;1.50;;;0.70;;
61025;SDS011;46911;32.650;-16.902;2022-12-18T06:25:52;10.07;;;0.98;;
61025;SDS011;46911;32.650;-16.902;2022-12-18T06:27:55;2.63;;;0.80;;
61025;SDS011;46911;32.650;-16.902;2022-12-18T06:29:56;3.83;;;0.70;;
61025;SDS011;46911;32.650;-16.902;2022-12-18T06:31:57;8.45;;;1.20;;
61025;SDS011;46911;32.650;-16.902;2022-12-18T06:34:02;7.65;;;0.80;;
61025;SDS011;46911;32.650;-16.902;2022-12-18T06:36:05;4.25;;;0.80;;
61025;SDS011;46911;32.650;-16.902;2022-12-18T06:38:06;4.85;;;1.02;;
61025;SDS011;46911;32.650;-16.902;2022-12-18T06:40:10;10.73;;;0.73;;
61025;SDS011;46911;32.650;-16.902;2022-12-18T06:42:13;6.68;;;0.80;;
61025;SDS011;46911;32.650;-16.902;2022-12-18T06:44:17;5.15;;;0.90;;
61025;SDS011;46911;32.650;-16.902;2022-12-18T06:46:18;4.35;;;0.60;;
61025;SDS011;46911;32.650;-16.902;2022-12-18T06:48:19;1.92;;;0.80;;
61025;SDS011;46911;32.650;-16.902;2022-12-18T06:50:22;3.75;;;0.60;;
61025;SDS011;46911;32.650;-16.902;2022-12-18T06:52:23;4.75;;;0.88;;
61025;SDS011;46911;32.650;-16.902;2022-12-18T06:54:26;5.13;;;0.55;;
61025;SDS011;46911;32.650;-16.902;2022-12-18T06:56:27;2.17;;;0.50;;
61025;SDS011;46911;32.650;-16.902;2022-12-18T06:58:33;3.20;;;0.90;;
61025;SDS011;46911;32.650;-16.902;2022-12-18T07:00:34;6.57;;;0.90;;
61025;SDS011;46911;32.650;-16.902;2022-12-18T07:02:35;8.77;;;0.88;;
61025;SDS011;46911;32.650;-16.902;2022-12-18T07:04:39;1.00;;;0.43;;
61025;SDS011;46911;32.650;-16.902;2022-12-18T07:06:40;2.40;;;0.70;;
61025;SDS011;46911;32.650;-16.902;2022-12-18T07:08:41;5.65;;;0.70;;
61025;SDS011;46911;32.650;-16.902;2022-12-18T07:10:42;4.55;;;0.50;;
61025;SDS011;46911;32.650;-16.902;2022-12-18T07:12:44;4.50;;;0.80;;
61025;SDS011;46911;32.650;-16.902;2022-12-18T07:14:44;6.35;;;1.00;;
61025;SDS011;46911;32.650;-16.902;2022-12-18T07:16:51;2.30;;;0.55;;
61025;SDS011;46911;32.650;-16.902;2022-12-18T07:18:56;5.20;;;0.85;;
61025;SDS011;46911;32.650;-16.902;2022-12-18T07:20:57;7.55;;;0.60;;
61025;SDS011;46911;32.650;-16.902;2022-12-18T07:23:03;4.78;;;0.90;;
61025;SDS011;46911;32.650;-16.902;2022-12-18T07:25:05;3.00;;;0.88;;
61025;SDS011;46911;32.650;-16.902;2022-12-18T07:27:11;5.00;;;0.80;;
61025;SDS011;46911;32.650;-16.902;2022-12-18T07:29:12;6.00;;;1.00;;
61025;SDS011;46911;32.650;-16.902;2022-12-18T07:31:19;6.63;;;0.90;;
61025;SDS011;46911;32.650;-16.902;2022-12-18T07:33:21;3.65;;;0.65;;
61025;SDS011;46911;32.650;-16.902;2022-12-18T07:35:24;4.03;;;0.65;;
61025;SDS011;46911;32.650;-16.902;2022-12-18T07:37:25;4.88;;;0.68;;
61025;SDS011;46911;32.650;-16.902;2022-12-18T07:39:26;2.15;;;0.60;;
61025;SDS011;46911;32.650;-16.902;2022-12-18T07:41:29;3.83;;;0.80;;
61025;SDS011;46911;32.650;-16.902;2022-12-18T07:43:41;3.72;;;0.80;;
61025;SDS011;46911;32.650;-16.902;2022-12-18T07:45:43;3.38;;;0.68;;
61025;SDS011;46911;32.650;-16.902;2022-12-18T07:47:44;3.50;;;0.60;;
61025;SDS011;46911;32.650;-16.902;2022-12-18T07:49:47;7.40;;;0.70;;
61025;SDS011;46911;32.650;-16.902;2022-12-18T07:51:50;7.20;;;0.73;;
61025;SDS011;46911;32.650;-16.902;2022-12-18T07:53:53;3.45;;;0.52;;
61025;SDS011;46911;32.650;-16.902;2022-12-18T07:56:00;4.85;;;0.85;;
61025;SDS011;46911;32.650;-16.902;2022-12-18T07:58:08;2.72;;;0.40;;
61025;SDS011;46911;32.650;-16.902;2022-12-18T08:00:15;4.10;;;0.70;;
61025;SDS011;46911;32.650;-16.902;2022-12-18T08:02:19;2.60;;;0.63;;
61025;SDS011;46911;32.650;-16.902;2022-12-18T08:04:21;2.33;;;0.55;;
61025;SDS011;46911;32.650;-16.902;2022-12-18T08:06:28;2.92;;;0.90;;
61025;SDS011;46911;32.650;-16.902;2022-12-18T08:08:33;10.65;;;1.20;;
61025;SDS011;46911;32.650;-16.902;2022-12-18T08:10:35;2.78;;;0.73;;
61025;SDS011;46911;32.650;-16.902;2022-12-18T08:12:39;8.23;;;0.88;;
61025;SDS011;46911;32.650;-16.902;2022-12-18T08:14:40;2.25;;;0.68;;
61025;SDS011;46911;32.650;-16.902;2022-12-18T08:16:43;3.92;;;0.75;;
61025;SDS011;46911;32.650;-16.902;2022-12-18T08:18:44;5.07;;;0.60;;
61025;SDS011;46911;32.650;-16.902;2022-12-18T08:20:47;6.05;;;0.80;;
61025;SDS011;46911;32.650;-16.902;2022-12-18T08:22:48;2.33;;;0.70;;
61025;SDS011;46911;32.650;-16.902;2022-12-18T08:24:51;5.53;;;0.80;;
61025;SDS011;46911;32.650;-16.902;2022-12-18T08:26:54;2.97;;;0.70;;
61025;SDS011;46911;32.650;-16.902;2022-12-18T08:28:58;2.50;;;0.88;;
61025;SDS011;46911;32.650;-16.902;2022-12-18T08:30:59;1.77;;;0.63;;
61025;SDS011;46911;32.650;-16.902;2022-12-18T08:33:01;3.40;;;0.82;;
61025;SDS011;46911;32.650;-16.902;2022-12-18T08:35:02;4.63;;;0.95;;
61025;SDS011;46911;32.650;-16.902;2022-12-18T08:37:05;7.20;;;0.95;;
61025;SDS011;46911;32.650;-16.902;2022-12-18T08:39:09;4.20;;;0.93;;
61025;SDS011;46911;32.650;-16.902;2022-12-18T08:41:12;4.95;;;1.00;;
61025;SDS011;46911;32.650;-16.902;2022-12-18T08:43:17;7.32;;;1.40;;
61025;SDS011;46911;32.650;-16.902;2022-12-18T08:45:36;7.13;;;1.00;;
61025;SDS011;46911;32.650;-16.902;2022-12-18T08:47:43;4.65;;;1.00;;
61025;SDS011;46911;32.650;-16.902;2022-12-18T08:49:47;7.22;;;1.00;;
61025;SDS011;46911;32.650;-16.902;2022-12-18T08:51:47;7.53;;;1.10;;
61025;SDS011;46911;32.650;-16.902;2022-12-18T08:53:51;6.72;;;1.00;;
61025;SDS011;46911;32.650;-16.902;2022-12-18T08:55:52;5.68;;;0.73;;
61025;SDS011;46911;32.650;-16.902;2022-12-18T08:57:53;9.85;;;1.17;;
61025;SDS011;46911;32.650;-16.902;2022-12-18T08:59:54;5.50;;;0.95;;
61025;SDS011;46911;32.650;-16.902;2022-12-18T09:01:54;10.40;;;2.67;;
61025;SDS011;46911;32.650;-16.902;2022-12-18T09:03:58;5.07;;;0.73;;
61025;SDS011;46911;32.650;-16.902;2022-12-18T09:06:01;2.42;;;0.75;;
61025;SDS011;46911;32.650;-16.902;2022-12-18T09:08:02;3.33;;;0.90;;
61025;SDS011;46911;32.650;-16.902;2022-12-18T09:10:06;3.15;;;0.73;;
61025;SDS011;46911;32.650;-16.902;2022-12-18T09:12:07;6.57;;;1.10;;
61025;SDS011;46911;32.650;-16.902;2022-12-18T09:14:11;5.43;;;0.88;;
61025;SDS011;46911;32.650;-16.902;2022-12-18T09:16:12;4.32;;;0.95;;
61025;SDS011;46911;32.650;-16.902;2022-12-18T09:18:16;4.40;;;0.93;;
61025;SDS011;46911;32.650;-16.902;2022-12-18T09:20:18;4.03;;;1.00;;
61025;SDS011;46911;32.650;-16.902;2022-12-18T09:22:19;5.53;;;0.73;;
61025;SDS011;46911;32.650;-16.902;2022-12-18T09:24:20;4.38;;;0.80;;
61025;SDS011;46911;32.650;-16.902;2022-12-18T09:26:24;6.57;;;0.85;;
61025;SDS011;46911;32.650;-16.902;2022-12-18T09:28:26;2.90;;;0.95;;
61025;SDS011;46911;32.650;-16.902;2022-12-18T09:30:30;11.98;;;1.33;;
61025;SDS011;46911;32.650;-16.902;2022-12-18T09:32:35;9.63;;;1.25;;
61025;SDS011;46911;32.650;-16.902;2022-12-18T09:34:36;4.80;;;0.80;;
61025;SDS011;46911;32.650;-16.902;2022-12-18T09:36:43;2.05;;;0.65;;
61025;SDS011;46911;32.650;-16.902;2022-12-18T09:38:47;5.70;;;1.05;;
61025;SDS011;46911;32.650;-16.902;2022-12-18T09:40:53;5.90;;;1.15;;
61025;SDS011;46911;32.650;-16.902;2022-12-18T09:43:03;3.90;;;0.88;;
61025;SDS011;46911;32.650;-16.902;2022-12-18T09:45:07;5.63;;;0.85;;
61025;SDS011;46911;32.650;-16.902;2022-12-18T09:49:18;4.00;;;1.00;;
61025;SDS011;46911;32.650;-16.902;2022-12-18T09:51:25;5.75;;;1.08;;
61025;SDS011;46911;32.650;-16.902;2022-12-18T09:53:27;5.35;;;0.98;;
61025;SDS011;46911;32.650;-16.902;2022-12-18T09:55:36;5.68;;;0.85;;
61025;SDS011;46911;32.650;-16.902;2022-12-18T09:57:45;4.05;;;0.90;;
61025;SDS011;46911;32.650;-16.902;2022-12-18T09:59:58;4.10;;;0.82;;
61025;SDS011;46911;32.650;-16.902;2022-12-18T10:02:15;3.42;;;0.88;;
61025;SDS011;46911;32.650;-16.902;2022-12-18T10:09:03;8.23;;;0.85;;
61025;SDS011;46911;32.650;-16.902;2022-12-18T10:14:09;7.38;;;1.17;;
61025;SDS011;46911;32.650;-16.902;2022-12-18T10:21:19;6.40;;;0.93;;
61025;SDS011;46911;32.650;-16.902;2022-12-18T10:27:48;6.07;;;0.80;;
61025;SDS011;46911;32.650;-16.902;2022-12-18T10:29:52;7.15;;;1.00;;
61025;SDS011;46911;32.650;-16.902;2022-12-18T10:31:54;4.57;;;0.50;;
61025;SDS011;46911;32.650;-16.902;2022-12-18T10:33:55;3.50;;;0.70;;
61025;SDS011;46911;32.650;-16.902;2022-12-18T10:35:55;4.65;;;0.80;;
61025;SDS011;46911;32.650;-16.902;2022-12-18T10:38:07;2.75;;;0.70;;
61025;SDS011;46911;32.650;-16.902;2022-12-18T10:40:12;5.05;;;1.50;;
61025;SDS011;46911;32.650;-16.902;2022-12-18T10:42:18;4.53;;;1.05;;
61025;SDS011;46911;32.650;-16.902;2022-12-18T10:44:23;4.82;;;1.10;;
61025;SDS011;46911;32.650;-16.902;2022-12-18T10:46:28;7.03;;;1.02;;
61025;SDS011;46911;32.650;-16.902;2022-12-18T10:48:29;6.25;;;1.15;;
61025;SDS011;46911;32.650;-16.902;2022-12-18T10:50:35;2.85;;;0.70;;
61025;SDS011;46911;32.650;-16.902;2022-12-18T10:52:44;3.72;;;0.63;;
61025;SDS011;46911;32.650;-16.902;2022-12-18T10:54:58;8.93;;;0.98;;
61025;SDS011;46911;32.650;-16.902;2022-12-18T10:57:45;7.95;;;1.40;;
61025;SDS011;46911;32.650;-16.902;2022-12-18T10:59:49;14.35;;;1.73;;
61025;SDS011;46911;32.650;-16.902;2022-12-18T11:01:56;3.55;;;1.10;;
61025;SDS011;46911;32.650;-16.902;2022-12-18T11:04:04;6.97;;;0.90;;
61025;SDS011;46911;32.650;-16.902;2022-12-18T11:06:10;2.58;;;0.95;;
61025;SDS011;46911;32.650;-16.902;2022-12-18T11:08:20;5.13;;;1.20;;
61025;SDS011;46911;32.650;-16.902;2022-12-18T11:10:26;4.55;;;0.82;;
61025;SDS011;46911;32.650;-16.902;2022-12-18T11:12:32;5.90;;;1.13;;
61025;SDS011;46911;32.650;-16.902;2022-12-18T11:14:42;4.22;;;0.90;;
61025;SDS011;46911;32.650;-16.902;2022-12-18T11:16:52;3.67;;;0.70;;
61025;SDS011;46911;32.650;-16.902;2022-12-18T11:19:07;2.78;;;0.60;;
61025;SDS011;46911;32.650;-16.902;2022-12-18T11:21:26;3.80;;;0.70;;
61025;SDS011;46911;32.650;-16.902;2022-12-18T11:23:30;5.60;;;1.10;;
61025;SDS011;46911;32.650;-16.902;2022-12-18T11:25:31;5.82;;;1.30;;
61025;SDS011;46911;32.650;-16.902;2022-12-18T11:27:35;9.65;;;2.17;;
61025;SDS011;46911;32.650;-16.902;2022-12-18T11:29:37;9.07;;;1.73;;
61025;SDS011;46911;32.650;-16.902;2022-12-18T11:31:42;6.18;;;1.15;;
61025;SDS011;46911;32.650;-16.902;2022-12-18T11:35:57;14.13;;;1.92;;
61025;SDS011;46911;32.650;-16.902;2022-12-18T11:38:18;7.97;;;1.05;;
61025;SDS011;46911;32.650;-16.902;2022-12-18T11:40:35;8.77;;;1.98;;
61025;SDS011;46911;32.650;-16.902;2022-12-18T11:42:53;6.47;;;1.33;;
61025;SDS011;46911;32.650;-16.902;2022-12-18T11:47:33;9.57;;;1.33;;
61025;SDS011;46911;32.650;-16.902;2022-12-18T11:49:41;7.90;;;1.10;;
61025;SDS011;46911;32.650;-16.902;2022-12-18T11:51:50;6.05;;;1.00;;
61025;SDS011;46911;32.650;-16.902;2022-12-18T11:54:14;5.20;;;1.15;;
61025;SDS011;46911;32.650;-16.902;2022-12-18T11:56:27;6.63;;;1.50;;
61025;SDS011;46911;32.650;-16.902;2022-12-18T11:58:37;6.43;;;0.88;;
61025;SDS011;46911;32.650;-16.902;2022-12-18T12:01:07;5.68;;;1.23;;
61025;SDS011;46911;32.650;-16.902;2022-12-18T12:05:54;8.30;;;0.90;;
61025;SDS011;46911;32.650;-16.902;2022-12-18T12:15:06;6.07;;;1.30;;
61025;SDS011;46911;32.650;-16.902;2022-12-18T12:24:19;3.22;;;0.90;;
61025;SDS011;46911;32.650;-16.902;2022-12-18T12:34:11;8.25;;;1.40;;
61025;SDS011;46911;32.650;-16.902;2022-12-18T12:38:51;5.07;;;1.30;;
61025;SDS011;46911;32.650;-16.902;2022-12-18T12:41:06;10.30;;;1.38;;
61025;SDS011;46911;32.650;-16.902;2022-12-18T12:45:39;10.60;;;1.60;;
61025;SDS011;46911;32.650;-16.902;2022-12-18T12:49:48;15.05;;;1.58;;
61025;SDS011;46911;32.650;-16.902;2022-12-18T12:51:53;10.27;;;1.67;;
61025;SDS011;46911;32.650;-16.902;2022-12-18T12:54:01;3.85;;;1.02;;
61025;SDS011;46911;32.650;-16.902;2022-12-18T12:56:09;6.97;;;1.55;;
61025;SDS011;46911;32.650;-16.902;2022-12-18T13:00:20;5.80;;;1.58;;
61025;SDS011;46911;32.650;-16.902;2022-12-18T13:02:24;9.32;;;1.88;;
61025;SDS011;46911;32.650;-16.902;2022-12-18T13:04:32;5.47;;;1.38;;
61025;SDS011;46911;32.650;-16.902;2022-12-18T13:09:10;10.10;;;1.60;;
61025;SDS011;46911;32.650;-16.902;2022-12-18T13:11:12;7.82;;;1.73;;
61025;SDS011;46911;32.650;-16.902;2022-12-18T13:13:55;8.15;;;1.55;;
61025;SDS011;46911;32.650;-16.902;2022-12-18T13:16:06;7.55;;;1.90;;
61025;SDS011;46911;32.650;-16.902;2022-12-18T13:20:12;8.23;;;1.90;;
61025;SDS011;46911;32.650;-16.902;2022-12-18T13:24:51;11.25;;;2.13;;
61025;SDS011;46911;32.650;-16.902;2022-12-18T13:26:52;8.80;;;2.55;;
61025;SDS011;46911;32.650;-16.902;2022-12-18T13:28:54;9.77;;;2.05;;
61025;SDS011;46911;32.650;-16.902;2022-12-18T13:30:56;7.88;;;1.67;;
61025;SDS011;46911;32.650;-16.902;2022-12-18T13:39:32;6.45;;;1.50;;
61025;SDS011;46911;32.650;-16.902;2022-12-18T13:41:34;9.77;;;1.38;;
61025;SDS011;46911;32.650;-16.902;2022-12-18T13:45:41;7.93;;;1.90;;
61025;SDS011;46911;32.650;-16.902;2022-12-18T13:47:47;10.70;;;3.45;;
61025;SDS011;46911;32.650;-16.902;2022-12-18T13:49:49;12.38;;;2.78;;
61025;SDS011;46911;32.650;-16.902;2022-12-18T13:51:51;10.18;;;2.20;;
61025;SDS011;46911;32.650;-16.902;2022-12-18T13:53:58;5.28;;;1.85;;
61025;SDS011;46911;32.650;-16.902;2022-12-18T13:56:26;6.63;;;2.00;;
61025;SDS011;46911;32.650;-16.902;2022-12-18T13:58:30;9.88;;;2.15;;